sensor_id;sensor_type;location;lat;lon;timestamp;P1;durP1;ratioP1;P2;durP2;ratioP2
14272;SDS011;7220;49.450;11.052;2023-01-23T05:55:45;13.35;;;9.40;;
14272;SDS011;7220;49.450;11.052;2023-01-23T05:59:45;11.35;;;8.52;;
14272;SDS011;7220;49.450;11.052;2023-01-23T06:03:46;11.93;;;8.85;;
14272;SDS011;7220;49.450;11.052;2023-01-23T06:07:46;12.48;;;9.15;;
14272;SDS011;7220;49.450;11.052;2023-01-23T06:11:47;13.27;;;9.60;;
14272;SDS011;7220;49.450;11.052;2023-01-23T06:15:47;13.77;;;9.85;;
14272;SDS011;7220;49.450;11.052;2023-01-23T06:19:47;12.82;;;9.77;;
14272;SDS011;7220;49.450;11.052;2023-01-23T06:23:48;13.43;;;9.90;;
14272;SDS011;7220;49.450;11.052;2023-01-23T06:27:48;12.77;;;9.57;;
14272;SDS011;7220;49.450;11.052;2023-01-23T06:31:48;14.82;;;10.10;;
14272;SDS011;7220;49.450;11.052;2023-01-23T06:35:49;11.47;;;9.53;;
14272;SDS011;7220;49.450;11.052;2023-01-23T06:39:56;11.07;;;8.98;;
14272;SDS011;7220;49.450;11.052;2023-01-23T06:43:56;14.23;;;10.20;;
14272;SDS011;7220;49.450;11.052;2023-01-23T06:47:56;13.82;;;9.68;;
14272;SDS011;7220;49.450;11.052;2023-01-23T06:51:57;13.30;;;9.30;;
14272;SDS011;7220;49.450;11.052;2023-01-23T06:56:01;14.32;;;10.35;;
14272;SDS011;7220;49.450;11.052;2023-01-23T07:00:04;13.15;;;9.65;;
14272;SDS011;7220;49.450;11.052;2023-01-23T07:04:04;14.85;;;10.43;;
14272;SDS011;7220;49.450;11.052;2023-01-23T07:08:05;13.80;;;9.48;;
14272;SDS011;7220;49.450;11.052;2023-01-23T07:12:07;15.43;;;10.43;;
14272;SDS011;7220;49.450;11.052;2023-01-23T07:16:08;13.25;;;9.68;;
14272;SDS011;7220;49.450;11.052;2023-01-23T07:20:08;16.17;;;11.00;;
14272;SDS011;7220;49.450;11.052;2023-01-23T07:24:09;14.57;;;10.20;;
14272;SDS011;7220;49.450;11.052;2023-01-23T07:28:09;15.32;;;10.85;;
14272;SDS011;7220;49.450;11.052;2023-01-23T07:32:10;16.10;;;10.48;;
14272;SDS011;7220;49.450;11.052;2023-01-23T07:36:10;14.32;;;10.27;;
14272;SDS011;7220;49.450;11.052;2023-01-23T07:40:13;15.95;;;11.25;;
14272;SDS011;7220;49.450;11.052;2023-01-23T07:44:18;15.07;;;10.38;;
14272;SDS011;7220;49.450;11.052;2023-01-23T07:48:20;14.60;;;11.50;;
14272;SDS011;7220;49.450;11.052;2023-01-23T07:52:21;16.77;;;10.82;;
14272;SDS011;7220;49.450;11.052;2023-01-23T07:56:21;15.88;;;11.43;;
14272;SDS011;7220;49.450;11.052;2023-01-23T08:00:21;14.38;;;10.48;;
14272;SDS011;7220;49.450;11.052;2023-01-23T08:04:22;16.25;;;10.80;;
14272;SDS011;7220;49.450;11.052;2023-01-23T08:08:23;14.57;;;10.77;;
14272;SDS011;7220;49.450;11.052;2023-01-23T08:12:23;16.60;;;11.32;;
14272;SDS011;7220;49.450;11.052;2023-01-23T08:16:23;15.38;;;10.40;;
14272;SDS011;7220;49.450;11.052;2023-01-23T08:20:24;16.65;;;10.82;;
14272;SDS011;7220;49.450;11.052;2023-01-23T08:24:24;14.45;;;10.50;;
14272;SDS011;7220;49.450;11.052;2023-01-23T08:28:25;16.13;;;11.50;;
14272;SDS011;7220;49.450;11.052;2023-01-23T08:32:25;14.27;;;10.80;;
14272;SDS011;7220;49.450;11.052;2023-01-23T08:36:26;15.80;;;10.27;;
14272;SDS011;7220;49.450;11.052;2023-01-23T08:40:26;14.43;;;10.32;;
14272;SDS011;7220;49.450;11.052;2023-01-23T08:44:26;15.25;;;11.57;;
14272;SDS011;7220;49.450;11.052;2023-01-23T08:48:30;13.82;;;10.73;;
14272;SDS011;7220;49.450;11.052;2023-01-23T08:52:30;14.35;;;10.07;;
14272;SDS011;7220;49.450;11.052;2023-01-23T08:56:30;14.93;;;10.48;;
14272;SDS011;7220;49.450;11.052;2023-01-23T09:00:31;16.58;;;11.45;;
14272;SDS011;7220;49.450;11.052;2023-01-23T09:04:32;16.00;;;11.55;;
14272;SDS011;7220;49.450;11.052;2023-01-23T09:08:32;16.73;;;10.35;;
14272;SDS011;7220;49.450;11.052;2023-01-23T09:12:33;13.60;;;10.18;;
14272;SDS011;7220;49.450;11.052;2023-01-23T09:16:33;17.60;;;11.15;;
14272;SDS011;7220;49.450;11.052;2023-01-23T09:20:33;15.15;;;11.02;;
14272;SDS011;7220;49.450;11.052;2023-01-23T09:24:34;15.98;;;11.32;;
14272;SDS011;7220;49.450;11.052;2023-01-23T09:28:35;14.48;;;10.50;;
14272;SDS011;7220;49.450;11.052;2023-01-23T09:32:36;12.07;;;9.13;;
14272;SDS011;7220;49.450;11.052;2023-01-23T09:36:36;12.10;;;9.55;;
14272;SDS011;7220;49.450;11.052;2023-01-23T09:40:37;14.10;;;10.13;;
14272;SDS011;7220;49.450;11.052;2023-01-23T09:44:48;12.93;;;9.90;;
14272;SDS011;7220;49.450;11.052;2023-01-23T09:53:25;10.77;;;8.60;;
14272;SDS011;7220;49.450;11.052;2023-01-23T09:57:35;11.05;;;9.30;;
14272;SDS011;7220;49.450;11.052;2023-01-23T10:01:40;11.40;;;8.93;;
14272;SDS011;7220;49.450;11.052;2023-01-23T10:05:43;11.45;;;9.02;;
14272;SDS011;7220;49.450;11.052;2023-01-23T10:23:30;11.52;;;8.60;;
14272;SDS011;7220;49.450;11.052;2023-01-23T10:27:39;11.80;;;8.88;;
14272;SDS011;7220;49.450;11.052;2023-01-23T10:31:45;10.95;;;9.13;;
14272;SDS011;7220;49.450;11.052;2023-01-23T10:35:57;10.63;;;8.82;;
14272;SDS011;7220;49.450;11.052;2023-01-23T10:40:13;10.10;;;8.32;;
14272;SDS011;7220;49.450;11.052;2023-01-23T10:44:38;10.63;;;8.02;;
14272;SDS011;7220;49.450;11.052;2023-01-23T10:48:40;13.15;;;8.38;;
14272;SDS011;7220;49.450;11.052;2023-01-23T10:52:43;9.15;;;8.00;;
14272;SDS011;7220;49.450;11.052;2023-01-23T10:56:45;10.90;;;8.63;;
14272;SDS011;7220;49.450;11.052;2023-01-23T11:00:48;14.63;;;9.57;;
14272;SDS011;7220;49.450;11.052;2023-01-23T11:04:49;10.23;;;8.13;;
14272;SDS011;7220;49.450;11.052;2023-01-23T11:08:59;11.05;;;8.50;;
14272;SDS011;7220;49.450;11.052;2023-01-23T11:13:00;10.30;;;8.00;;
14272;SDS011;7220;49.450;11.052;2023-01-23T11:17:10;11.20;;;8.20;;
14272;SDS011;7220;49.450;11.052;2023-01-23T11:21:28;10.02;;;8.20;;
14272;SDS011;7220;49.450;11.052;2023-01-23T11:25:42;9.82;;;8.15;;
14272;SDS011;7220;49.450;11.052;2023-01-23T11:34:10;10.43;;;8.45;;
14272;SDS011;7220;49.450;11.052;2023-01-23T11:38:14;10.82;;;8.90;;
14272;SDS011;7220;49.450;11.052;2023-01-23T11:42:17;9.95;;;8.23;;
14272;SDS011;7220;49.450;11.052;2023-01-23T11:46:28;10.48;;;7.82;;
14272;SDS011;7220;49.450;11.052;2023-01-23T11:59:28;9.68;;;8.43;;
14272;SDS011;7220;49.450;11.052;2023-01-23T12:12:30;9.98;;;8.27;;
14272;SDS011;7220;49.450;11.052;2023-01-23T12:16:41;14.20;;;11.35;;
14272;SDS011;7220;49.450;11.052;2023-01-23T12:25:46;11.63;;;9.63;;
14272;SDS011;7220;49.450;11.052;2023-01-23T12:42:17;15.38;;;10.90;;
14272;SDS011;7220;49.450;11.052;2023-01-23T12:46:24;12.18;;;10.13;;
14272;SDS011;7220;49.450;11.052;2023-01-23T12:54:49;11.52;;;9.93;;
14272;SDS011;7220;49.450;11.052;2023-01-23T12:59:05;13.00;;;10.00;;
14272;SDS011;7220;49.450;11.052;2023-01-23T13:11:28;12.18;;;10.07;;
14272;SDS011;7220;49.450;11.052;2023-01-23T13:16:02;12.15;;;10.23;;
14272;SDS011;7220;49.450;11.052;2023-01-23T13:20:51;14.05;;;9.82;;
14272;SDS011;7220;49.450;11.052;2023-01-23T13:24:49;13.20;;;10.50;;
14272;SDS011;7220;49.450;11.052;2023-01-23T13:29:43;11.93;;;9.85;;
14272;SDS011;7220;49.450;11.052;2023-01-23T13:33:49;11.05;;;8.93;;
14272;SDS011;7220;49.450;11.052;2023-01-23T13:37:50;11.43;;;9.60;;
14272;SDS011;7220;49.450;11.052;2023-01-23T13:50:48;11.90;;;9.70;;
14272;SDS011;7220;49.450;11.052;2023-01-23T13:54:57;11.45;;;8.90;;
14272;SDS011;7220;49.450;11.052;2023-01-23T13:59:30;9.93;;;8.23;;
14272;SDS011;7220;49.450;11.052;2023-01-23T14:03:35;9.45;;;7.35;;
14272;SDS011;7220;49.450;11.052;2023-01-23T14:08:02;9.50;;;7.82;;
14272;SDS011;7220;49.450;11.052;2023-01-23T14:12:04;10.93;;;8.07;;
14272;SDS011;7220;49.450;11.052;2023-01-23T14:16:05;9.20;;;7.78;;
14272;SDS011;7220;49.450;11.052;2023-01-23T14:20:15;9.70;;;8.40;;
14272;SDS011;7220;49.450;11.052;2023-01-23T14:25:02;8.85;;;7.43;;
14272;SDS011;7220;49.450;11.052;2023-01-23T14:28:49;10.35;;;8.10;;
14272;SDS011;7220;49.450;11.052;2023-01-23T14:32:55;9.68;;;8.68;;
14272;SDS011;7220;49.450;11.052;2023-01-23T14:37:02;10.13;;;8.40;;
14272;SDS011;7220;49.450;11.052;2023-01-23T14:41:05;8.45;;;7.10;;
14272;SDS011;7220;49.450;11.052;2023-01-23T14:45:07;9.07;;;7.65;;
14272;SDS011;7220;49.450;11.052;2023-01-23T14:49:12;10.82;;;7.70;;
14272;SDS011;7220;49.450;11.052;2023-01-23T14:53:15;10.10;;;8.45;;
14272;SDS011;7220;49.450;11.052;2023-01-23T14:57:16;11.10;;;8.32;;
14272;SDS011;7220;49.450;11.052;2023-01-23T15:01:19;9.32;;;7.20;;
14272;SDS011;7220;49.450;11.052;2023-01-23T15:09:25;9.93;;;7.88;;
14272;SDS011;7220;49.450;11.052;2023-01-23T15:13:40;8.88;;;7.57;;
14272;SDS011;7220;49.450;11.052;2023-01-23T15:17:43;8.95;;;7.47;;
14272;SDS011;7220;49.450;11.052;2023-01-23T15:21:45;9.23;;;7.90;;
14272;SDS011;7220;49.450;11.052;2023-01-23T15:25:45;11.38;;;7.75;;
14272;SDS011;7220;49.450;11.052;2023-01-23T15:29:46;10.93;;;8.43;;
14272;SDS011;7220;49.450;11.052;2023-01-23T15:33:46;10.93;;;8.57;;
14272;SDS011;7220;49.450;11.052;2023-01-23T15:37:47;10.45;;;8.25;;
14272;SDS011;7220;49.450;11.052;2023-01-23T15:41:49;10.43;;;8.23;;
14272;SDS011;7220;49.450;11.052;2023-01-23T15:46:01;12.73;;;9.20;;
14272;SDS011;7220;49.450;11.052;2023-01-23T15:50:01;10.43;;;8.65;;
14272;SDS011;7220;49.450;11.052;2023-01-23T15:54:02;10.32;;;8.20;;
14272;SDS011;7220;49.450;11.052;2023-01-23T15:58:04;11.52;;;8.93;;
14272;SDS011;7220;49.450;11.052;2023-01-23T16:02:04;11.65;;;8.77;;
14272;SDS011;7220;49.450;11.052;2023-01-23T16:06:07;11.55;;;8.65;;
14272;SDS011;7220;49.450;11.052;2023-01-23T16:10:16;12.40;;;8.93;;
14272;SDS011;7220;49.450;11.052;2023-01-23T16:14:19;12.02;;;9.38;;
14272;SDS011;7220;49.450;11.052;2023-01-23T16:18:19;11.80;;;9.50;;
14272;SDS011;7220;49.450;11.052;2023-01-23T16:22:23;13.02;;;9.27;;
14272;SDS011;7220;49.450;11.052;2023-01-23T16:26:25;12.65;;;10.23;;
14272;SDS011;7220;49.450;11.052;2023-01-23T16:30:27;12.45;;;9.85;;
14272;SDS011;7220;49.450;11.052;2023-01-23T16:34:27;15.07;;;10.02;;
14272;SDS011;7220;49.450;11.052;2023-01-23T16:38:28;15.55;;;10.60;;
14272;SDS011;7220;49.450;11.052;2023-01-23T16:42:28;14.48;;;10.88;;
14272;SDS011;7220;49.450;11.052;2023-01-23T16:46:29;13.43;;;10.10;;
14272;SDS011;7220;49.450;11.052;2023-01-23T16:54:34;13.00;;;10.60;;
14272;SDS011;7220;49.450;11.052;2023-01-23T16:58:36;16.10;;;10.48;;
14272;SDS011;7220;49.450;11.052;2023-01-23T17:02:38;14.40;;;11.55;;
14272;SDS011;7220;49.450;11.052;2023-01-23T17:06:38;15.10;;;11.00;;
14272;SDS011;7220;49.450;11.052;2023-01-23T17:10:39;18.70;;;11.48;;
14272;SDS011;7220;49.450;11.052;2023-01-23T17:14:40;15.48;;;11.13;;
14272;SDS011;7220;49.450;11.052;2023-01-23T17:18:42;15.60;;;10.85;;
14272;SDS011;7220;49.450;11.052;2023-01-23T17:22:43;14.98;;;11.20;;
14272;SDS011;7220;49.450;11.052;2023-01-23T17:26:44;15.43;;;10.90;;
14272;SDS011;7220;49.450;11.052;2023-01-23T17:30:48;14.45;;;10.95;;
14272;SDS011;7220;49.450;11.052;2023-01-23T17:34:50;15.18;;;11.02;;
14272;SDS011;7220;49.450;11.052;2023-01-23T17:38:52;15.73;;;11.60;;
14272;SDS011;7220;49.450;11.052;2023-01-23T17:42:53;16.42;;;11.82;;
14272;SDS011;7220;49.450;11.052;2023-01-23T17:46:54;13.75;;;11.23;;
14272;SDS011;7220;49.450;11.052;2023-01-23T17:50:54;16.42;;;11.60;;
14272;SDS011;7220;49.450;11.052;2023-01-23T17:54:55;17.10;;;11.77;;
14272;SDS011;7220;49.450;11.052;2023-01-23T17:58:56;16.83;;;13.23;;
14272;SDS011;7220;49.450;11.052;2023-01-23T18:02:57;16.73;;;11.93;;
14272;SDS011;7220;49.450;11.052;2023-01-23T18:06:58;17.25;;;12.15;;
14272;SDS011;7220;49.450;11.052;2023-01-23T18:10:59;15.52;;;12.32;;
14272;SDS011;7220;49.450;11.052;2023-01-23T18:15:05;18.33;;;12.55;;
14272;SDS011;7220;49.450;11.052;2023-01-23T18:19:15;16.92;;;11.70;;
14272;SDS011;7220;49.450;11.052;2023-01-23T18:23:16;14.10;;;11.52;;
14272;SDS011;7220;49.450;11.052;2023-01-23T18:27:18;15.32;;;10.30;;
14272;SDS011;7220;49.450;11.052;2023-01-23T18:40:13;10.20;;;8.02;;
14272;SDS011;7220;49.450;11.052;2023-01-23T18:44:23;10.93;;;9.25;;
14272;SDS011;7220;49.450;11.052;2023-01-23T18:48:25;9.77;;;8.77;;
14272;SDS011;7220;49.450;11.052;2023-01-23T18:52:30;10.00;;;8.13;;
14272;SDS011;7220;49.450;11.052;2023-01-23T18:56:56;8.30;;;7.03;;
14272;SDS011;7220;49.450;11.052;2023-01-23T19:01:30;8.07;;;7.25;;
14272;SDS011;7220;49.450;11.052;2023-01-23T19:05:39;10.48;;;7.35;;
14272;SDS011;7220;49.450;11.052;2023-01-23T19:09:41;8.35;;;7.35;;
14272;SDS011;7220;49.450;11.052;2023-01-23T19:22:38;12.07;;;10.15;;
14272;SDS011;7220;49.450;11.052;2023-01-23T19:26:48;9.52;;;8.45;;
14272;SDS011;7220;49.450;11.052;2023-01-23T19:30:49;11.80;;;9.82;;
14272;SDS011;7220;49.450;11.052;2023-01-23T19:34:49;11.77;;;9.05;;
14272;SDS011;7220;49.450;11.052;2023-01-23T19:38:50;9.75;;;8.45;;
14272;SDS011;7220;49.450;11.052;2023-01-23T19:42:51;8.98;;;8.13;;
14272;SDS011;7220;49.450;11.052;2023-01-23T19:46:55;9.98;;;8.10;;
14272;SDS011;7220;49.450;11.052;2023-01-23T19:50:55;10.07;;;8.75;;
14272;SDS011;7220;49.450;11.052;2023-01-23T19:54:56;9.32;;;8.02;;
14272;SDS011;7220;49.450;11.052;2023-01-23T19:58:56;10.15;;;8.93;;
14272;SDS011;7220;49.450;11.052;2023-01-23T20:02:57;10.65;;;8.27;;
14272;SDS011;7220;49.450;11.052;2023-01-23T20:06:57;12.18;;;10.55;;
14272;SDS011;7220;49.450;11.052;2023-01-23T20:10:57;14.52;;;10.57;;
14272;SDS011;7220;49.450;11.052;2023-01-23T20:14:58;12.43;;;10.73;;
14272;SDS011;7220;49.450;11.052;2023-01-23T20:18:58;10.90;;;9.43;;
14272;SDS011;7220;49.450;11.052;2023-01-23T20:22:58;8.90;;;7.97;;
14272;SDS011;7220;49.450;11.052;2023-01-23T20:26:59;11.05;;;9.27;;
14272;SDS011;7220;49.450;11.052;2023-01-23T20:31:06;10.73;;;9.07;;
14272;SDS011;7220;49.450;11.052;2023-01-23T20:35:08;12.20;;;9.30;;
14272;SDS011;7220;49.450;11.052;2023-01-23T20:39:10;11.85;;;9.13;;
14272;SDS011;7220;49.450;11.052;2023-01-23T20:43:11;11.82;;;8.70;;
14272;SDS011;7220;49.450;11.052;2023-01-23T20:47:11;11.68;;;9.13;;
14272;SDS011;7220;49.450;11.052;2023-01-23T20:51:12;13.18;;;10.60;;
14272;SDS011;7220;49.450;11.052;2023-01-23T20:55:14;24.42;;;15.80;;
14272;SDS011;7220;49.450;11.052;2023-01-23T20:59:14;19.27;;;13.07;;
14272;SDS011;7220;49.450;11.052;2023-01-23T21:03:18;14.20;;;10.23;;
14272;SDS011;7220;49.450;11.052;2023-01-23T21:07:21;13.23;;;10.20;;
14272;SDS011;7220;49.450;11.052;2023-01-23T21:11:21;10.48;;;9.23;;
14272;SDS011;7220;49.450;11.052;2023-01-23T21:15:22;11.18;;;9.13;;
14272;SDS011;7220;49.450;11.052;2023-01-23T21:19:23;11.30;;;9.68;;
14272;SDS011;7220;49.450;11.052;2023-01-23T21:23:23;12.13;;;9.18;;
14272;SDS011;7220;49.450;11.052;2023-01-23T21:27:23;11.45;;;9.55;;
14272;SDS011;7220;49.450;11.052;2023-01-23T21:31:28;11.55;;;8.98;;
14272;SDS011;7220;49.450;11.052;2023-01-23T21:35:31;10.32;;;9.10;;
14272;SDS011;7220;49.450;11.052;2023-01-23T21:39:32;10.38;;;9.27;;
14272;SDS011;7220;49.450;11.052;2023-01-23T21:43:32;11.60;;;9.75;;
14272;SDS011;7220;49.450;11.052;2023-01-23T21:47:33;12.25;;;9.80;;
14272;SDS011;7220;49.450;11.052;2023-01-23T21:51:33;15.02;;;11.10;;
14272;SDS011;7220;49.450;11.052;2023-01-23T21:55:35;15.82;;;11.90;;
14272;SDS011;7220;49.450;11.052;2023-01-23T21:59:35;14.52;;;11.13;;
14272;SDS011;7220;49.450;11.052;2023-01-23T22:03:35;14.02;;;10.70;;
14272;SDS011;7220;49.450;11.052;2023-01-23T22:07:36;11.55;;;9.68;;
14272;SDS011;7220;49.450;11.052;2023-01-23T22:11:36;11.32;;;9.55;;
14272;SDS011;7220;49.450;11.052;2023-01-23T22:15:37;12.55;;;9.73;;
14272;SDS011;7220;49.450;11.052;2023-01-23T22:19:37;10.88;;;9.30;;
14272;SDS011;7220;49.450;11.052;2023-01-23T22:23:38;12.93;;;10.27;;
14272;SDS011;7220;49.450;11.052;2023-01-23T22:27:38;11.90;;;10.25;;
14272;SDS011;7220;49.450;11.052;2023-01-23T22:31:38;13.35;;;9.82;;
14272;SDS011;7220;49.450;11.052;2023-01-23T22:35:39;12.48;;;10.23;;
14272;SDS011;7220;49.450;11.052;2023-01-23T22:39:41;12.43;;;10.10;;
14272;SDS011;7220;49.450;11.052;2023-01-23T22:43:41;14.02;;;10.85;;
14272;SDS011;7220;49.450;11.052;2023-01-23T22:47:41;16.67;;;12.25;;
14272;SDS011;7220;49.450;11.052;2023-01-23T22:51:42;22.87;;;15.20;;
14272;SDS011;7220;49.450;11.052;2023-01-23T22:55:42;23.20;;;14.27;;
14272;SDS011;7220;49.450;11.052;2023-01-23T22:59:42;18.38;;;12.88;;
14272;SDS011;7220;49.450;11.052;2023-01-23T23:03:43;15.45;;;11.18;;
14272;SDS011;7220;49.450;11.052;2023-01-23T23:07:44;11.93;;;9.63;;
14272;SDS011;7220;49.450;11.052;2023-01-23T23:11:44;12.60;;;9.95;;
14272;SDS011;7220;49.450;11.052;2023-01-23T23:15:46;14.55;;;10.50;;
14272;SDS011;7220;49.450;11.052;2023-01-23T23:19:46;12.05;;;10.15;;
14272;SDS011;7220;49.450;11.052;2023-01-23T23:23:47;12.10;;;10.18;;
14272;SDS011;7220;49.450;11.052;2023-01-23T23:27:47;12.07;;;10.48;;
14272;SDS011;7220;49.450;11.052;2023-01-23T23:31:47;11.63;;;10.20;;
14272;SDS011;7220;49.450;11.052;2023-01-23T23:35:51;14.45;;;10.10;;
14272;SDS011;7220;49.450;11.052;2023-01-23T23:39:51;12.45;;;9.93;;
14272;SDS011;7220;49.450;11.052;2023-01-23T23:43:51;11.95;;;10.05;;
14272;SDS011;7220;49.450;11.052;2023-01-23T23:47:52;11.93;;;9.10;;
14272;SDS011;7220;49.450;11.052;2023-01-23T23:51:53;11.50;;;9.80;;
14272;SDS011;7220;49.450;11.052;2023-01-23T23:55:54;11.70;;;9.35;;
14272;SDS011;7220;49.450;11.052;2023-01-23T23:59:54;11.82;;;10.30;;
